Time;durP1;ratioP1;P1;durP2;ratioP2;P2;SDS_P1;SDS_P2;PMS_P1;PMS_P2;Temp;Humidity;BMP_temperature;BMP_pressure;BME280_temperature;BME280_humidity;BME280_pressure;Samples;Min_cycle;Max_cycle;Signal;HPM_P1;HPM_P2
2021/03/10 00:01:31;;;;;;;2.07;1.20;;;;;;;-4.50;99.48;100828.25;1873916;76;20994;-78
2021/03/10 00:03:59;;;;;;;2.30;1.60;;;;;;;-4.54;98.86;100823.54;1873999;76;20971;-80
2021/03/10 00:06:28;;;;;;;3.50;1.73;;;;;;;-4.55;98.98;100816.99;1873986;76;20935;-79
2021/03/10 00:08:57;;;;;;;0.80;0.80;;;;;;;-4.56;99.28;100820.09;1874059;76;21807;-80
2021/03/10 00:11:25;;;;;;;4.40;1.93;;;;;;;-4.52;99.79;100817.74;1874116;76;20927;-79
2021/03/10 00:13:54;;;;;;;4.10;1.67;;;;;;;-4.48;100.00;100819.38;1874050;76;20962;-80
2021/03/10 00:16:23;;;;;;;1.00;1.00;;;;;;;-4.45;99.93;100819.70;1874008;76;20971;-79
2021/03/10 00:18:51;;;;;;;1.17;1.00;;;;;;;-4.46;99.44;100813.57;1873803;76;21301;-80
2021/03/10 00:21:19;;;;;;;4.40;2.37;;;;;;;-4.46;99.15;100814.01;1873805;76;21188;-79
2021/03/10 00:23:47;;;;;;;1.67;1.60;;;;;;;-4.46;98.95;100820.17;1874059;76;20990;-80
2021/03/10 00:26:15;;;;;;;4.30;2.30;;;;;;;-4.46;98.56;100814.01;1873830;76;20931;-80
2021/03/10 00:28:43;;;;;;;2.37;1.50;;;;;;;-4.46;98.57;100810.05;1869786;76;21005;-80
2021/03/10 00:31:11;;;;;;;2.27;1.83;;;;;;;-4.47;98.56;100810.52;1857137;77;20984;-80
2021/03/10 00:33:39;;;;;;;2.90;2.00;;;;;;;-4.47;98.75;100812.30;1854523;76;22634;-80
2021/03/10 00:36:09;;;;;;;1.50;1.40;;;;;;;-4.46;98.85;100819.29;1839680;78;20988;-80
2021/03/10 00:38:39;;;;;;;0.87;0.87;;;;;;;-4.46;97.50;100810.93;1836707;78;21526;-79
2021/03/10 00:41:07;;;;;;;2.13;1.23;;;;;;;-4.49;96.23;100816.78;1834875;78;20979;-80
2021/03/10 00:43:36;;;;;;;1.90;1.03;;;;;;;-4.50;96.10;100813.73;1807900;78;20995;-80
2021/03/10 00:46:04;;;;;;;1.60;1.50;;;;;;;-4.51;96.50;100815.52;1835052;78;21168;-79
2021/03/10 00:48:33;;;;;;;2.10;1.67;;;;;;;-4.49;95.91;100815.47;1834979;78;20944;-80
2021/03/10 00:51:01;;;;;;;3.03;1.27;;;;;;;-4.51;94.98;100818.16;1835125;77;21418;-79
2021/03/10 00:53:29;;;;;;;1.97;1.40;;;;;;;-4.57;93.25;100819.69;1834891;78;21031;-80
2021/03/10 00:55:57;;;;;;;2.33;1.03;;;;;;;-4.59;93.32;100818.88;1834876;78;21043;-81
2021/03/10 00:58:25;;;;;;;1.60;1.50;;;;;;;-4.60;93.73;100815.86;1834979;78;21254;-80
2021/03/10 01:00:53;;;;;;;1.40;1.30;;;;;;;-4.56;93.99;100817.92;1835163;78;21051;-80
2021/03/10 01:03:21;;;;;;;2.50;1.80;;;;;;;-4.56;94.00;100816.14;1835051;78;20982;-79
2021/03/10 01:05:49;;;;;;;3.27;1.90;;;;;;;-4.56;93.74;100816.14;1834920;78;20991;-81
2021/03/10 01:08:18;;;;;;;1.37;1.30;;;;;;;-4.53;94.47;100805.91;1834844;78;21019;-79
2021/03/10 01:10:47;;;;;;;1.67;1.57;;;;;;;-4.52;94.24;100818.20;1834964;78;21205;-81
2021/03/10 01:13:16;;;;;;;1.63;0.80;;;;;;;-4.52;94.32;100813.78;1834708;78;20991;-81
2021/03/10 01:15:44;;;;;;;2.93;1.77;;;;;;;-4.49;94.76;100819.42;1835291;78;21007;-80
2021/03/10 01:18:13;;;;;;;2.97;1.60;;;;;;;-4.49;94.67;100812.83;1835306;78;21477;-80
2021/03/10 01:20:41;;;;;;;1.00;1.00;;;;;;;-4.51;94.09;100814.20;1835168;78;21438;-80
2021/03/10 01:23:09;;;;;;;2.00;1.63;;;;;;;-4.50;94.27;100823.82;1835057;78;21419;-80
2021/03/10 01:25:38;;;;;;;1.70;1.47;;;;;;;-4.47;94.36;100829.47;1835017;78;20967;-81
2021/03/10 01:28:06;;;;;;;1.43;1.33;;;;;;;-4.48;94.11;100819.38;1835252;78;20988;-80
2021/03/10 01:30:34;;;;;;;2.17;1.30;;;;;;;-4.51;93.59;100826.55;1887258;76;20910;-80
2021/03/10 01:33:03;;;;;;;1.10;1.03;;;;;;;-4.52;93.62;100827.45;1887327;76;20893;-81
2021/03/10 01:35:31;;;;;;;2.80;2.03;;;;;;;-4.53;93.91;100828.35;1887006;75;21342;-80
2021/03/10 01:37:59;;;;;;;1.23;1.17;;;;;;;-4.53;93.87;100829.67;1902264;75;20978;-81
2021/03/10 01:40:27;;;;;;;3.50;1.37;;;;;;;-4.55;93.46;100821.84;1902117;75;20955;-80
2021/03/10 01:43:05;;;;;;;2.53;1.57;;;;;;;-4.59;93.09;100825.02;1902130;75;21014;-80
2021/03/10 01:45:34;;;;;;;0.87;0.87;;;;;;;-4.60;93.43;100824.63;1840131;77;21007;-79
2021/03/10 01:48:06;;;;;;;4.23;2.20;;;;;;;-4.63;92.61;100831.80;1840320;78;21295;-80
2021/03/10 01:50:34;;;;;;;3.63;1.70;;;;;;;-4.64;92.78;100836.22;1840398;78;20956;-80
2021/03/10 01:53:03;;;;;;;0.87;0.87;;;;;;;-4.66;93.67;100827.47;1868727;76;21398;-81
2021/03/10 01:55:32;;;;;;;5.00;1.37;;;;;;;-4.65;93.30;100831.84;1840608;78;21406;-80
2021/03/10 01:58:00;;;;;;;1.30;1.20;;;;;;;-4.66;93.33;100832.75;1840590;77;21447;-81
2021/03/10 02:00:31;;;;;;;4.67;1.70;;;;;;;-4.64;93.48;100834.91;1839822;77;21059;-81
2021/03/10 02:02:59;;;;;;;2.23;1.83;;;;;;;-4.63;93.76;100843.20;1829429;78;20961;-80
2021/03/10 02:05:27;;;;;;;2.37;1.60;;;;;;;-4.64;93.55;100844.14;1829828;78;21019;-80
2021/03/10 02:08:13;;;;;;;2.17;1.70;;;;;;;-4.65;93.66;100841.08;1830013;78;21019;-81
2021/03/10 02:11:12;;;;;;;2.60;2.37;;;;;;;-4.63;93.74;100840.56;1847092;76;22411;-81
2021/03/10 02:14:18;;;;;;;3.40;2.10;;;;;;;-4.68;93.63;100848.25;1817049;78;21699;-80
2021/03/10 02:16:51;;;;;;;3.83;2.07;;;;;;;-4.71;93.69;100848.34;1817247;79;21639;-80
2021/03/10 02:19:53;;;;;;;1.85;1.65;;;;;;;-4.74;93.16;100851.97;1806160;78;20889;-80
2021/03/10 02:22:48;;;;;;;2.87;1.90;;;;;;;-4.78;92.69;100854.29;1806029;78;20993;-80
2021/03/10 02:25:33;;;;;;;2.47;1.90;;;;;;;-4.83;93.12;100855.79;1779254;80;20953;-80
2021/03/10 02:28:01;;;;;;;2.93;1.47;;;;;;;-4.89;93.81;100853.34;1779027;80;20985;-81
2021/03/10 02:30:36;;;;;;;2.10;1.10;;;;;;;-4.90;94.41;100853.42;1753954;80;21365;-81
2021/03/10 02:33:21;;;;;;;1.17;0.97;;;;;;;-4.91;94.73;100847.73;1779313;80;20985;-80
2021/03/10 02:35:57;;;;;;;1.20;1.13;;;;;;;-4.92;95.18;100853.91;1779507;80;20945;-80
2021/03/10 02:38:25;;;;;;;1.70;0.93;;;;;;;-4.97;95.03;100854.09;1779558;80;20918;-81
2021/03/10 02:40:54;;;;;;;1.20;1.10;;;;;;;-4.99;95.24;100856.77;1779919;80;21001;-80
2021/03/10 02:43:24;;;;;;;0.97;0.97;;;;;;;-4.98;95.55;100856.30;1779956;80;21192;-80
2021/03/10 02:45:53;;;;;;;2.63;1.53;;;;;;;-5.00;95.75;100855.03;1780040;80;21001;-81
2021/03/10 02:48:24;;;;;;;0.83;0.83;;;;;;;-5.03;95.87;100856.48;1779923;80;20965;-81
2021/03/10 02:50:54;;;;;;;1.30;1.20;;;;;;;-5.07;96.20;100858.80;1780019;79;21033;-79
2021/03/10 02:53:23;;;;;;;2.50;1.57;;;;;;;-5.09;96.62;100862.41;1780120;80;20993;-81
2021/03/10 02:55:51;;;;;;;2.70;1.47;;;;;;;-5.11;97.43;100861.61;1780065;80;21209;-81
2021/03/10 02:58:20;;;;;;;3.13;1.03;;;;;;;-5.13;97.97;100866.92;1780105;80;20958;-80
2021/03/10 03:00:48;;;;;;;1.50;1.40;;;;;;;-5.17;98.48;100867.48;1780445;80;20902;-80
2021/03/10 03:03:16;;;;;;;2.97;2.60;;;;;;;-5.17;98.67;100872.76;1776327;80;20921;-80
2021/03/10 03:05:45;;;;;;;2.10;1.47;;;;;;;-5.19;98.82;100875.91;1776000;81;21051;-81
2021/03/10 03:08:13;;;;;;;1.37;1.20;;;;;;;-5.22;98.84;100882.59;1775786;81;21642;-80
2021/03/10 03:10:42;;;;;;;3.43;2.80;;;;;;;-5.28;99.21;100883.24;1775725;80;20962;-79
2021/03/10 03:13:13;;;;;;;2.30;1.60;;;;;;;-5.34;99.90;100882.98;1775975;81;21000;-80
2021/03/10 03:15:53;;;;;;;3.67;2.05;;;;;;;-5.40;100.00;100887.13;1776026;79;21020;-81
2021/03/10 03:18:21;;;;;;;4.10;1.77;;;;;;;-5.47;100.00;100889.11;1776066;81;21024;-81
2021/03/10 03:20:50;;;;;;;2.07;1.57;;;;;;;-5.55;100.00;100888.02;1775839;81;22111;-81
2021/03/10 03:23:21;;;;;;;4.03;1.83;;;;;;;-5.64;100.00;100881.72;1775432;81;20949;-81
2021/03/10 03:25:50;;;;;;;5.20;2.73;;;;;;;-5.72;100.00;100884.60;1775608;81;20933;-81
2021/03/10 03:28:20;;;;;;;1.53;1.43;;;;;;;-5.78;100.00;100883.92;1781416;77;21348;-80
2021/03/10 03:30:51;;;;;;;2.67;1.90;;;;;;;-5.82;100.00;100893.69;1850531;77;20986;-80
2021/03/10 03:33:24;;;;;;;2.77;1.83;;;;;;;-5.88;100.00;100889.91;1807517;78;20937;-81
2021/03/10 03:35:54;;;;;;;2.70;1.72;;;;;;;-5.93;100.00;100892.69;1775770;79;28485;-81
2021/03/10 03:38:24;;;;;;;2.27;1.70;;;;;;;-5.99;100.00;100890.25;1775480;81;20992;-82
2021/03/10 03:40:53;;;;;;;4.10;2.03;;;;;;;-6.04;100.00;100889.98;1775693;79;20973;-80
2021/03/10 03:43:26;;;;;;;4.93;2.03;;;;;;;-6.07;100.00;100888.32;1775704;81;20941;-80
2021/03/10 03:45:55;;;;;;;2.85;1.85;;;;;;;-6.10;100.00;100889.72;1765183;80;21364;-79
2021/03/10 03:48:30;;;;;;;4.17;2.57;;;;;;;-6.14;100.00;100885.00;1775359;81;20925;-81
2021/03/10 03:51:02;;;;;;;1.27;1.17;;;;;;;-6.17;100.00;100892.12;1775527;79;20925;-81
2021/03/10 03:53:32;;;;;;;1.67;1.27;;;;;;;-6.21;100.00;100890.03;1775452;81;20941;-80
2021/03/10 03:56:02;;;;;;;1.90;1.53;;;;;;;-6.24;100.00;100885.30;1775536;81;21000;-81
2021/03/10 03:58:31;;;;;;;3.63;1.63;;;;;;;-6.28;100.00;100884.53;1754330;81;21513;-80
2021/03/10 04:01:03;;;;;;;1.13;0.80;;;;;;;-6.30;100.00;100883.71;1765168;80;20929;-79
2021/03/10 04:03:34;;;;;;;;;;;;;;;-6.32;100.00;100884.19;1778204;81;21032;-80
2021/03/10 04:06:03;;;;;;;4.73;1.83;;;;;;;-6.34;100.00;100888.63;1775766;80;20167;-80
2021/03/10 04:08:32;;;;;;;8.20;1.03;;;;;;;-6.35;100.00;100886.92;1775715;81;20980;-80
2021/03/10 04:11:04;;;;;;;2.20;1.37;;;;;;;-6.36;100.00;100893.94;1775467;79;21208;-81
2021/03/10 04:13:34;;;;;;;1.13;1.07;;;;;;;-6.39;100.00;100898.42;1775568;81;20985;-80
2021/03/10 04:16:06;;;;;;;2.97;1.23;;;;;;;-6.39;100.00;100904.57;1775494;81;21032;-80
2021/03/10 04:18:39;;;;;;;3.43;1.83;;;;;;;-6.38;100.00;100899.70;1775215;81;20957;-81
2021/03/10 04:21:08;;;;;;;2.20;1.30;;;;;;;-6.34;100.00;100900.05;1775602;81;21004;-80
2021/03/10 04:23:38;;;;;;;1.13;0.93;;;;;;;-6.31;100.00;100899.94;1775397;81;21405;-79
2021/03/10 04:26:07;;;;;;;2.33;1.60;;;;;;;-6.29;100.00;100895.95;1775405;81;21036;-81
2021/03/10 04:28:37;;;;;;;4.67;2.13;;;;;;;-6.29;100.00;100901.22;1775535;79;20949;-78
2021/03/10 04:31:07;;;;;;;9.27;4.90;;;;;;;-6.30;100.00;100900.82;1775544;79;20953;-79
2021/03/10 04:33:37;;;;;;;10.87;4.10;;;;;;;-6.32;100.00;100899.55;1781022;78;20928;-81
2021/03/10 04:36:07;;;;;;;27.97;6.60;;;;;;;-6.30;100.00;100910.89;1826739;78;21294;-80
2021/03/10 04:38:42;;;;;;;19.05;7.37;;;;;;;-6.28;100.00;100905.59;1826763;77;20947;-81
2021/03/10 04:41:11;;;;;;;11.97;5.87;;;;;;;-6.23;100.00;100902.38;1815703;78;26876;-80
2021/03/10 04:43:45;;;;;;;11.95;5.75;;;;;;;-6.17;100.00;100910.08;1816026;78;20958;-80
2021/03/10 04:46:15;;;;;;;12.27;4.90;;;;;;;-6.11;100.00;100905.09;1815479;78;20986;-82
2021/03/10 04:48:43;;;;;;;7.37;4.10;;;;;;;-6.03;100.00;100904.89;1826709;77;21361;-81
2021/03/10 04:51:16;;;;;;;12.78;3.98;;;;;;;-5.98;100.00;100910.89;1815692;78;21001;-81
2021/03/10 04:53:48;;;;;;;5.42;3.55;;;;;;;-5.92;100.00;100909.34;1826777;78;20906;-80
2021/03/10 04:56:17;;;;;;;4.70;2.53;;;;;;;-5.83;100.00;100910.84;1826731;78;20863;-81
2021/03/10 04:58:49;;;;;;;6.28;3.12;;;;;;;-5.73;100.00;100910.53;1826876;77;20871;-81
2021/03/10 05:01:22;;;;;;;8.07;3.20;;;;;;;-5.64;100.00;100914.66;1826779;78;21189;-81
2021/03/10 05:03:51;;;;;;;1.77;1.63;;;;;;;-5.54;100.00;100913.94;1826824;78;21009;-82
2021/03/10 05:06:19;;;;;;;5.47;3.10;;;;;;;-5.45;100.00;100925.51;1826746;78;20914;-81
2021/03/10 05:08:50;;;;;;;5.30;2.53;;;;;;;-5.34;100.00;100931.77;1824600;78;20887;-81
2021/03/10 05:11:20;;;;;;;17.57;8.47;;;;;;;-5.24;100.00;100928.36;1825626;78;20899;-81
2021/03/10 05:13:49;;;;;;;16.47;7.90;;;;;;;-5.13;100.00;100931.54;1805341;79;21366;-81
2021/03/10 05:16:17;;;;;;;13.27;5.47;;;;;;;-5.02;100.00;100939.95;1805278;79;20967;-81
2021/03/10 05:18:47;;;;;;;13.50;4.53;;;;;;;-4.90;100.00;100940.48;1805881;79;20931;-84
2021/03/10 05:21:18;;;;;;;15.00;5.23;;;;;;;-4.82;100.00;100945.03;1806172;79;20991;-82
2021/03/10 05:23:47;;;;;;;15.83;5.97;;;;;;;-4.75;100.00;100950.97;1806043;79;21002;-84
2021/03/10 05:26:15;;;;;;;18.97;7.83;;;;;;;-4.68;100.00;100945.89;1805730;79;21358;-83
2021/03/10 05:28:43;;;;;;;14.70;5.97;;;;;;;-4.60;100.00;100946.05;1805806;79;21010;-83
2021/03/10 05:31:13;;;;;;;12.50;4.83;;;;;;;-4.53;100.00;100948.45;1805819;79;21010;-83
2021/03/10 05:33:42;;;;;;;9.83;3.80;;;;;;;-4.48;100.00;100955.33;1805964;79;21034;-83
2021/03/10 05:36:11;;;;;;;9.90;5.03;;;;;;;-4.43;100.00;100953.36;1805844;79;21046;-83
2021/03/10 05:38:40;;;;;;;5.20;3.30;;;;;;;-4.35;100.00;100953.59;1806084;79;22143;-83
2021/03/10 05:41:10;;;;;;;11.00;3.00;;;;;;;-4.30;100.00;100953.83;1793314;79;20951;-83
2021/03/10 05:43:44;;;;;;;2.67;2.20;;;;;;;-4.28;100.00;100959.05;1806149;79;20998;-83
2021/03/10 05:46:15;;;;;;;4.00;1.90;;;;;;;-4.29;100.00;100961.28;1806111;79;21050;-82
2021/03/10 05:48:46;;;;;;;2.67;2.33;;;;;;;-4.30;100.00;100959.11;1805819;78;20970;-82
2021/03/10 05:51:14;;;;;;;3.37;2.23;;;;;;;-4.25;100.00;100962.45;1806183;79;21199;-82
2021/03/10 05:53:46;;;;;;;2.17;1.70;;;;;;;-4.18;100.00;100962.22;1805651;79;20962;-83
2021/03/10 05:56:17;;;;;;;12.63;4.83;;;;;;;-4.09;100.00;100967.16;1805526;79;20947;-83
2021/03/10 05:59:01;;;;;;;7.73;3.57;;;;;;;-3.96;100.00;100964.97;1805530;79;21014;-83
2021/03/10 06:01:30;;;;;;;8.30;3.05;;;;;;;-3.83;100.00;100968.40;1805744;79;20986;-83
2021/03/10 06:04:01;;;;;;;5.13;2.73;;;;;;;-3.75;100.00;100968.14;1805488;79;21485;-83
2021/03/10 06:06:38;;;;;;;8.93;4.33;;;;;;;-3.71;100.00;100974.17;1805567;79;20983;-84
2021/03/10 06:09:17;;;;;;;4.60;2.43;;;;;;;-3.66;100.00;100971.75;1805473;79;20975;-83
2021/03/10 06:12:00;;;;;;;3.67;2.10;;;;;;;-3.57;100.00;100973.19;1805223;79;21010;-83
2021/03/10 06:14:28;;;;;;;5.25;2.33;;;;;;;-3.47;100.00;100975.01;1805740;79;20976;-81
2021/03/10 06:17:05;;;;;;;3.20;2.13;;;;;;;-3.38;100.00;100976.44;1803387;79;21406;-80
2021/03/10 06:19:47;;;;;;;2.47;2.10;;;;;;;-3.22;100.00;100978.03;1768610;79;21020;-81
2021/03/10 06:22:18;;;;;;;5.87;3.17;;;;;;;-3.08;99.13;100975.26;1768112;81;21387;-79
2021/03/10 06:24:52;;;;;;;2.80;2.40;;;;;;;-3.00;97.98;100976.73;1768339;81;21004;-82
2021/03/10 06:27:23;;;;;;;11.20;3.27;;;;;;;-2.90;95.62;100982.92;1768991;81;21352;-83
2021/03/10 06:29:58;;;;;;;3.50;2.30;;;;;;;-2.82;93.98;100989.21;1791513;79;21648;-82
2021/03/10 06:32:27;;;;;;;4.27;2.50;;;;;;;-2.75;92.14;100987.18;1800443;79;20941;-82
2021/03/10 06:34:55;;;;;;;4.23;2.37;;;;;;;-2.68;89.17;100988.66;1811304;78;21021;-78
2021/03/10 06:37:29;;;;;;;4.87;2.77;;;;;;;-2.60;87.56;100988.33;1806431;79;20994;-77
2021/03/10 06:40:12;;;;;;;7.10;3.47;;;;;;;-2.52;85.46;100984.91;1786630;80;21131;-76
2021/03/10 06:42:55;;;;;;;2.58;2.00;;;;;;;-2.44;83.48;100981.92;1781239;80;21353;-77
2021/03/10 06:45:32;;;;;;;4.30;2.40;;;;;;;-2.36;79.37;100991.74;1785150;80;21017;-77
2021/03/10 06:48:00;;;;;;;2.70;1.67;;;;;;;-2.31;78.29;100996.39;1752501;80;21059;-78
2021/03/10 06:50:38;;;;;;;2.47;1.83;;;;;;;-2.33;75.94;100991.62;1719862;83;21133;-76
2021/03/10 06:53:06;;;;;;;6.93;3.30;;;;;;;-2.33;76.06;100991.62;1742644;80;21794;-78
2021/03/10 06:55:45;;;;;;;2.30;2.10;;;;;;;-2.29;73.24;100994.53;1734300;82;21345;-75
2021/03/10 06:58:23;;;;;;;5.23;2.10;;;;;;;-2.18;70.09;100994.06;1874143;76;26746;-72
2021/03/10 07:01:01;;;;;;;6.13;3.10;;;;;;;-2.16;68.96;100999.71;1866955;76;20982;-73
2021/03/10 07:03:30;;;;;;;9.50;3.23;;;;;;;-2.02;67.84;101004.42;1857856;76;21652;-77
2021/03/10 07:05:58;;;;;;;7.27;2.73;;;;;;;-1.84;67.17;101008.05;1774709;80;20902;-77
2021/03/10 07:08:28;;;;;;;22.77;9.10;;;;;;;-1.74;65.96;101005.83;1792867;78;20998;-77
2021/03/10 07:10:56;;;;;;;12.87;5.80;;;;;;;-1.67;65.48;101001.12;1802410;78;21531;-75
2021/03/10 07:13:24;;;;;;;15.03;5.60;;;;;;;-1.74;64.08;101011.98;1803932;79;21005;-82
2021/03/10 07:15:53;;;;;;;12.13;3.67;;;;;;;-1.68;66.89;101008.66;1767943;80;21270;-82
2021/03/10 07:18:22;;;;;;;3.27;2.07;;;;;;;-1.49;66.26;101006.05;1813428;79;21053;-80
2021/03/10 07:20:51;;;;;;;2.13;1.60;;;;;;;-1.30;65.36;101008.25;1794724;79;21048;-82
2021/03/10 07:23:22;;;;;;;2.90;1.90;;;;;;;-1.06;65.32;101002.27;1806444;79;21077;-82
2021/03/10 07:25:51;;;;;;;2.97;2.20;;;;;;;-0.79;64.74;100998.73;1810829;78;20918;-83
2021/03/10 07:28:30;;;;;;;11.20;3.43;;;;;;;-0.54;63.82;101001.51;1784843;80;21804;-86
2021/03/10 07:31:04;;;;;;;6.20;3.03;;;;;;;-0.35;62.59;100997.92;1797128;78;20942;-81
2021/03/10 07:33:36;;;;;;;7.40;3.20;;;;;;;-0.23;60.99;100992.86;1771324;80;21144;-80
2021/03/10 07:36:05;;;;;;;6.17;3.07;;;;;;;-0.18;59.98;100997.92;1788678;79;21050;-79
2021/03/10 07:38:39;;;;;;;4.03;2.10;;;;;;;-0.08;59.59;100991.67;1794281;79;20993;-79
2021/03/10 07:41:14;;;;;;;2.23;1.90;;;;;;;0.05;58.72;100988.75;1793902;80;21365;-87
2021/03/10 07:43:47;;;;;;;2.33;2.13;;;;;;;0.12;56.86;100990.15;1782713;80;21448;-86
2021/03/10 07:46:43;;;;;;;7.63;2.80;;;;;;;0.11;56.25;100987.59;1772608;80;20938;-86
2021/03/10 07:50:01;;;;;;;3.90;2.40;;;;;;;0.16;55.01;100983.75;1810946;77;26543;-88
2021/03/10 07:52:37;;;;;;;4.40;2.27;;;;;;;0.20;54.96;100990.24;1783951;79;20971;-86
2021/03/10 07:55:16;;;;;;;4.17;2.73;;;;;;;0.26;54.50;100984.10;1718816;80;21763;-77
2021/03/10 07:57:53;;;;;;;2.77;2.20;;;;;;;0.40;54.25;100994.49;1771027;80;20998;-78
2021/03/10 08:00:36;;;;;;;3.20;2.23;;;;;;;0.41;53.02;100990.88;1764967;80;21045;-77
2021/03/10 08:03:04;;;;;;;8.58;4.42;;;;;;;0.38;52.83;100990.58;1689707;82;20987;-74
2021/03/10 08:05:35;;;;;;;6.27;3.03;;;;;;;0.46;52.94;100987.05;1646734;86;21256;-74
2021/03/10 08:08:14;;;;;;;7.23;3.20;;;;;;;0.60;52.74;100972.95;1691580;84;21889;-78
2021/03/10 08:10:44;;;;;;;4.20;2.40;;;;;;;0.70;51.89;100969.33;1637150;87;21567;-80
2021/03/10 08:13:17;;;;;;;11.93;4.07;;;;;;;0.82;51.67;100967.32;1631588;84;21649;-79
2021/03/10 08:15:46;;;;;;;3.95;2.65;;;;;;;0.89;50.17;100962.03;1693343;84;21025;-78
2021/03/10 08:18:19;;;;;;;6.10;2.50;;;;;;;0.92;50.15;100975.64;1693013;84;21017;-79
2021/03/10 08:20:49;;;;;;;5.77;2.30;;;;;;;0.99;49.40;100967.69;1678715;85;21581;-81
2021/03/10 08:23:17;;;;;;;10.30;2.43;;;;;;;1.02;48.27;100976.84;1633617;87;20956;-82
2021/03/10 08:25:51;;;;;;;3.23;1.67;;;;;;;1.02;48.12;100975.52;1653629;86;21557;-78
2021/03/10 08:28:20;;;;;;;3.07;1.97;;;;;;;1.08;47.46;100976.52;1619195;87;21526;-81
2021/03/10 08:30:49;;;;;;;3.87;2.50;;;;;;;1.18;48.09;100968.84;1690963;84;21112;-76
2021/03/10 08:33:18;;;;;;;3.03;1.87;;;;;;;1.38;48.13;100973.03;1700344;84;21206;-76
2021/03/10 08:35:48;;;;;;;8.70;2.53;;;;;;;1.46;46.96;100970.77;1696609;84;21022;-77
2021/03/10 08:38:16;;;;;;;27.47;8.50;;;;;;;1.50;46.94;100962.11;1702433;84;21048;-78
2021/03/10 08:40:44;;;;;;;15.77;5.67;;;;;;;1.59;46.58;100962.89;1702071;84;21014;-77
2021/03/10 08:43:20;;;;;;;23.37;7.57;;;;;;;1.61;46.17;100962.36;1699945;84;21049;-80
2021/03/10 08:45:48;;;;;;;10.77;5.07;;;;;;;1.59;45.61;100962.05;1619274;87;21396;-78
2021/03/10 08:48:16;;;;;;;9.63;4.83;;;;;;;1.48;45.05;100960.86;1693341;84;21068;-76
2021/03/10 08:50:46;;;;;;;6.23;3.00;;;;;;;1.33;45.10;100965.78;1662313;85;21123;-81
2021/03/10 08:53:15;;;;;;;25.13;8.27;;;;;;;1.31;45.09;100964.53;1664709;86;20988;-74
2021/03/10 08:55:46;;;;;;;15.03;4.90;;;;;;;1.23;44.65;100965.92;1659605;85;21063;-76
2021/03/10 08:58:18;;;;;;;6.73;3.27;;;;;;;1.23;45.03;100963.25;1724761;82;21748;-80
2021/03/10 09:00:49;;;;;;;3.33;2.40;;;;;;;1.29;45.10;100958.44;1742613;81;21043;-78
2021/03/10 09:03:19;;;;;;;23.77;7.13;;;;;;;1.32;44.48;100961.38;1714063;82;21055;-77
2021/03/10 09:05:50;;;;;;;23.47;8.97;;;;;;;1.22;44.14;100961.52;1740422;82;21044;-79
2021/03/10 09:08:23;;;;;;;17.33;6.60;;;;;;;1.20;44.60;100970.94;1663268;86;21011;-79
2021/03/10 09:10:55;;;;;;;5.13;2.53;;;;;;;1.26;44.56;100964.42;1714495;82;21028;-78
2021/03/10 09:13:25;;;;;;;3.63;2.37;;;;;;;1.23;43.97;100968.10;1682698;83;21120;-81
2021/03/10 09:16:12;;;;;;;2.40;1.90;;;;;;;1.39;44.22;100959.23;1892404;75;27349;-77
2021/03/10 09:18:42;;;;;;;4.40;2.37;;;;;;;1.34;43.23;100970.14;1682411;85;21050;-85
2021/03/10 09:21:20;;;;;;;8.30;3.17;;;;;;;1.34;42.84;100974.14;1815107;77;26517;-77
2021/03/10 09:24:01;;;;;;;9.47;3.60;;;;;;;1.29;42.97;100969.09;1822851;77;21017;-75
2021/03/10 09:26:39;;;;;;;7.53;3.33;;;;;;;1.35;43.04;100965.21;1818807;78;21293;-74
2021/03/10 09:29:09;;;;;;;6.23;2.97;;;;;;;1.38;43.46;100969.04;1839129;77;21020;-76
2021/03/10 09:31:45;;;;;;;5.53;3.00;;;;;;;1.60;43.88;100963.29;1827149;78;21102;-75
2021/03/10 09:34:13;;;;;;;7.70;2.77;;;;;;;1.85;43.48;100961.83;1823620;76;21105;-78
2021/03/10 09:36:46;;;;;;;44.13;10.17;;;;;;;1.93;41.94;100953.35;1798148;78;20996;-78
2021/03/10 09:39:16;;;;;;;17.03;5.10;;;;;;;1.89;41.67;100954.02;1825353;78;21817;-80
2021/03/10 09:41:47;;;;;;;4.50;2.50;;;;;;;1.90;40.95;100958.41;1827835;78;21021;-78
2021/03/10 09:44:17;;;;;;;4.33;2.30;;;;;;;1.77;40.29;100961.42;1827703;77;21901;-80
2021/03/10 09:46:47;;;;;;;6.57;2.27;;;;;;;1.63;40.29;100951.57;1829819;77;20935;-79
2021/03/10 09:49:17;;;;;;;2.47;2.00;;;;;;;1.62;41.03;100948.55;1825646;77;21040;-77
2021/03/10 09:51:48;;;;;;;2.27;2.07;;;;;;;1.73;41.48;100951.90;1825281;77;21186;-76
2021/03/10 09:54:18;;;;;;;4.23;2.70;;;;;;;1.90;41.32;100953.92;1820729;78;21000;-74
2021/03/10 09:56:56;;;;;;;10.67;3.63;;;;;;;1.98;40.50;100958.78;1835583;76;26296;-80
2021/03/10 09:59:32;;;;;;;16.17;6.13;;;;;;;1.86;40.35;100960.41;1805075;79;20924;-80
2021/03/10 10:02:02;;;;;;;8.27;3.93;;;;;;;1.83;40.56;100957.92;1780262;78;21282;-80
2021/03/10 10:04:36;;;;;;;6.00;2.90;;;;;;;1.86;40.24;100955.53;1784000;80;21023;-81
2021/03/10 10:07:08;;;;;;;2.93;2.37;;;;;;;1.88;40.32;100953.17;1783953;80;21012;-79
2021/03/10 10:09:41;;;;;;;5.20;2.50;;;;;;;1.88;40.26;100950.98;1785960;79;20929;-80
2021/03/10 10:12:11;;;;;;;3.50;2.13;;;;;;;1.92;40.43;100955.17;1713241;82;21024;-82
2021/03/10 10:15:08;;;;;;;3.70;1.80;;;;;;;1.83;39.06;100952.58;1848998;77;26720;-79
2021/03/10 10:17:42;;;;;;;3.35;2.17;;;;;;;1.61;38.40;100948.14;1809772;79;20977;-77
2021/03/10 10:20:13;;;;;;;3.33;1.90;;;;;;;1.43;37.83;100943.43;1781313;80;21217;-78
2021/03/10 10:22:41;;;;;;;6.37;2.40;;;;;;;1.30;37.69;100939.30;1721411;82;21030;-76
2021/03/10 10:25:09;;;;;;;4.80;2.70;;;;;;;1.32;38.45;100933.41;1775418;80;21586;-79
2021/03/10 10:27:42;;;;;;;10.47;4.40;;;;;;;1.43;38.97;100932.77;1725493;82;21066;-77
2021/03/10 10:30:14;;;;;;;10.70;3.23;;;;;;;1.57;39.72;100928.81;1740381;82;21022;-78
2021/03/10 10:32:45;;;;;;;35.73;11.30;;;;;;;1.78;39.84;100927.15;1766168;80;21299;-78
2021/03/10 10:35:14;;;;;;;32.13;11.20;;;;;;;1.92;39.16;100923.16;1727710;82;21165;-76
2021/03/10 10:37:43;;;;;;;19.63;5.80;;;;;;;2.03;39.25;100918.02;1776452;80;20950;-80
2021/03/10 10:40:18;;;;;;;11.77;3.53;;;;;;;2.15;38.75;100919.56;1764866;80;20941;-76
2021/03/10 10:42:50;;;;;;;4.60;2.23;;;;;;;2.25;38.64;100915.37;1766579;80;21119;-78
2021/03/10 10:45:19;;;;;;;4.90;2.63;;;;;;;2.29;38.40;100916.88;1781087;80;21410;-78
2021/03/10 10:47:48;;;;;;;3.37;2.00;;;;;;;2.40;38.54;100919.72;1770011;80;21167;-79
2021/03/10 10:50:17;;;;;;;2.20;1.80;;;;;;;2.44;37.65;100923.05;1761730;80;20982;-79
2021/03/10 10:52:48;;;;;;;5.23;2.43;;;;;;;2.36;37.40;100912.03;1758577;80;21638;-77
2021/03/10 10:55:19;;;;;;;2.17;1.73;;;;;;;2.26;37.38;100921.08;1752571;80;21192;-79
2021/03/10 10:57:48;;;;;;;2.20;1.50;;;;;;;2.23;37.79;100910.12;1770428;80;21643;-81
2021/03/10 11:00:20;;;;;;;4.20;3.00;;;;;;;2.30;38.08;100900.39;1742889;82;21646;-75
2021/03/10 11:02:49;;;;;;;15.93;6.07;;;;;;;2.44;37.97;100901.25;1780485;80;21649;-75
2021/03/10 11:05:19;;;;;;;13.13;5.70;;;;;;;2.49;37.32;100900.09;1738309;82;21042;-75
2021/03/10 11:07:49;;;;;;;9.03;3.63;;;;;;;2.60;38.07;100905.58;1729890;82;21140;-79
2021/03/10 11:10:18;;;;;;;13.20;4.90;;;;;;;2.74;37.64;100908.22;1723541;82;21070;-74
2021/03/10 11:12:48;;;;;;;6.80;3.00;;;;;;;2.75;37.13;100900.59;1722212;82;21046;-75
2021/03/10 11:15:18;;;;;;;4.77;2.83;;;;;;;2.73;36.54;100903.00;1704903;83;21596;-74
2021/03/10 11:17:48;;;;;;;8.67;3.10;;;;;;;2.69;36.18;100901.47;1718169;82;21049;-74
2021/03/10 11:20:16;;;;;;;4.03;2.07;;;;;;;2.73;36.58;100893.66;1708227;82;21034;-74
2021/03/10 11:22:48;;;;;;;5.67;2.40;;;;;;;2.80;36.38;100894.48;1727039;82;22513;-75
2021/03/10 11:25:20;;;;;;;4.90;2.20;;;;;;;2.77;35.83;100891.16;1739945;82;21073;-76
2021/03/10 11:27:49;;;;;;;3.77;2.23;;;;;;;2.69;36.10;100894.78;1713379;81;21686;-77
2021/03/10 11:30:24;;;;;;;5.07;2.40;;;;;;;2.72;36.73;100892.77;1736834;82;20999;-78
2021/03/10 11:32:53;;;;;;;2.90;2.37;;;;;;;2.84;36.77;100887.12;1611715;87;21046;-78
2021/03/10 11:35:23;;;;;;;3.30;2.07;;;;;;;2.77;35.72;100878.64;1673547;83;21086;-79
2021/03/10 11:37:53;;;;;;;15.70;5.17;;;;;;;2.67;35.97;100878.86;1705075;83;21030;-77
2021/03/10 11:43:03;;;;;;;11.83;3.70;;;;;;;2.49;36.13;100875.57;1836204;76;26752;-81
2021/03/10 11:45:32;;;;;;;8.90;3.00;;;;;;;2.42;36.48;100871.58;1739311;82;21013;-75
2021/03/10 11:48:00;;;;;;;14.53;5.23;;;;;;;2.45;36.85;100868.23;1746537;81;21205;-81